Terminal Aerodrome Forecast
Issued by NWS

Home | Current Version | Previous Version | Text Only | Print | Product List | Glossary On
Versions: 1 2 3 4 5 6 7 8 9 10 11 12 13 14 15 16 17
802
FTUS42 KFFC 241359 AAA
TAFPDK
TAF AMD
KPDK 241359Z 2414/2512 25010KT 3SM BR BKN008 BKN014
     FM241500 26006KT P6SM SCT012 OVC020
     FM241800 27010KT P6SM BKN035
      TEMPO 2419/2423 4SM -SHRA OVC025=

USA.gov is the U.S. government's official web portal to all federal, state and local government web resources and services.